Time;durP1;ratioP1;P1;durP2;ratioP2;P2;SDS_P1;SDS_P2;PMS_P1;PMS_P2;Temp;Humidity;BMP_temperature;BMP_pressure;BME280_temperature;BME280_humidity;BME280_pressure;Samples;Min_cycle;Max_cycle;Signal;HPM_P1;HPM_P2
2023/01/25 00:02:08;;;;;;;78.63;34.33;;;;;;;-0.37;100.00;103638.03;5060812;28;20052;-90
2023/01/25 00:04:33;;;;;;;80.43;35.30;;;;;;;-0.49;100.00;103616.91;5055410;28;20112;-90
2023/01/25 00:06:59;;;;;;;85.97;36.80;;;;;;;-0.44;100.00;103628.91;5077631;28;20040;-91
2023/01/25 00:09:25;;;;;;;84.43;35.38;;;;;;;-0.46;100.00;103624.59;5039448;28;20029;-90
2023/01/25 00:11:52;;;;;;;88.60;36.57;;;;;;;-0.40;100.00;103627.72;5066464;28;20029;-90
2023/01/25 00:14:18;;;;;;;88.73;37.53;;;;;;;-0.40;100.00;103628.56;5077728;28;20370;-90
2023/01/25 00:16:44;;;;;;;88.65;37.40;;;;;;;-0.49;100.00;103622.19;5066880;28;20005;-90
2023/01/25 00:19:10;;;;;;;90.03;36.55;;;;;;;-0.51;100.00;103618.81;5053937;28;20021;-90
2023/01/25 00:21:37;;;;;;;88.22;37.13;;;;;;;-0.42;100.00;103637.53;5057991;28;20016;-91
2023/01/25 00:24:04;;;;;;;92.70;39.60;;;;;;;-0.42;100.00;103634.91;5058386;28;20110;-90
2023/01/25 00:26:30;;;;;;;82.87;35.00;;;;;;;-0.51;100.00;103616.19;5053210;28;20104;-90
2023/01/25 00:28:56;;;;;;;89.70;38.00;;;;;;;-0.50;100.00;103622.31;5052720;28;20275;-90
2023/01/25 00:31:34;;;;;;;86.47;37.67;;;;;;;-0.41;100.00;103626.06;5055123;28;20032;-89
2023/01/25 00:34:24;;;;;;;93.70;38.70;;;;;;;-0.43;100.00;103633.22;5045704;28;20522;-90
2023/01/25 00:36:50;;;;;;;90.83;37.60;;;;;;;-0.46;100.00;103627.22;5058273;28;20911;-90
2023/01/25 00:39:16;;;;;;;90.50;38.33;;;;;;;-0.49;100.00;103622.19;5062212;28;20108;-90
2023/01/25 00:41:42;;;;;;;94.43;38.83;;;;;;;-0.47;100.00;103625.53;5055747;28;20044;-90
2023/01/25 00:44:08;;;;;;;97.32;39.83;;;;;;;-0.54;100.00;103608.50;5026546;28;20029;-90
2023/01/25 00:46:33;;;;;;;90.88;36.92;;;;;;;-0.63;100.00;103604.78;5014962;28;20128;-90
2023/01/25 00:48:59;;;;;;;94.50;39.23;;;;;;;-0.53;100.00;103619.91;5032420;28;20022;-91
2023/01/25 00:51:25;;;;;;;88.70;37.10;;;;;;;-0.56;100.00;103615.72;5037436;28;20056;-90
2023/01/25 00:53:51;;;;;;;86.63;35.65;;;;;;;-0.54;100.00;103616.41;5059987;28;20060;-90
2023/01/25 00:56:16;;;;;;;88.53;36.20;;;;;;;-0.70;100.00;103586.91;5052935;28;20068;-90
2023/01/25 00:58:42;;;;;;;88.00;36.30;;;;;;;-0.62;100.00;103608.25;5066723;28;20523;-90
2023/01/25 01:01:07;;;;;;;93.90;39.03;;;;;;;-0.57;100.00;103611.41;5062714;28;20057;-91
2023/01/25 01:03:34;;;;;;;98.97;40.70;;;;;;;-0.65;100.00;103606.72;5060667;28;20043;-91
2023/01/25 01:06:01;;;;;;;91.00;38.07;;;;;;;-0.75;100.00;103583.81;5052591;28;20108;-91
2023/01/25 01:08:27;;;;;;;90.30;38.45;;;;;;;-0.84;100.00;103567.72;5051538;28;20480;-90
2023/01/25 01:10:58;;;;;;;97.07;38.17;;;;;;;-0.83;100.00;103564.13;5061920;28;20039;-90
2023/01/25 01:13:24;;;;;;;88.10;37.00;;;;;;;-0.72;100.00;103573.88;5062191;28;20025;-90
2023/01/25 01:15:49;;;;;;;98.23;38.27;;;;;;;-0.58;100.00;103601.81;5034253;28;20701;-91
2023/01/25 01:18:14;;;;;;;95.13;39.13;;;;;;;-0.61;100.00;103597.59;5049072;28;20036;-90
2023/01/25 01:20:40;;;;;;;98.63;41.50;;;;;;;-0.65;100.00;103590.03;5052319;28;20554;-89
2023/01/25 01:23:06;;;;;;;101.27;39.40;;;;;;;-0.58;100.00;103596.56;5059188;28;20095;-90
2023/01/25 01:25:31;;;;;;;105.55;41.00;;;;;;;-0.53;100.00;103614.63;5059311;28;20407;-90
2023/01/25 01:27:57;;;;;;;99.03;39.80;;;;;;;-0.62;100.00;103595.09;5075636;28;20028;-90
2023/01/25 01:30:24;;;;;;;95.93;38.47;;;;;;;-0.58;100.00;103599.19;5072066;28;20028;-91
2023/01/25 01:32:50;;;;;;;101.53;39.35;;;;;;;-0.54;100.00;103597.97;5043626;28;20438;-90
2023/01/25 01:35:15;;;;;;;91.43;38.50;;;;;;;-0.54;100.00;103597.97;5032435;28;20025;-91
2023/01/25 01:37:41;;;;;;;96.03;38.40;;;;;;;-0.59;100.00;103602.78;5047703;28;20025;-90
2023/01/25 01:40:12;;;;;;;98.70;39.77;;;;;;;-0.62;100.00;103601.19;5045277;28;20385;-90
2023/01/25 01:42:58;;;;;;;96.07;39.33;;;;;;;-0.70;100.00;103592.19;5032158;28;20657;-90
2023/01/25 01:45:42;;;;;;;100.47;39.95;;;;;;;-0.62;100.00;103609.09;5053448;28;20052;-90
2023/01/25 01:48:28;;;;;;;108.45;42.63;;;;;;;-0.71;100.00;103596.63;5058229;28;20082;-91
2023/01/25 01:50:57;;;;;;;106.90;41.35;;;;;;;-0.65;100.00;103605.84;5050861;28;20056;-91
2023/01/25 01:53:25;;;;;;;107.32;42.08;;;;;;;-0.59;100.00;103609.81;5041123;28;20029;-89
2023/01/25 01:55:58;;;;;;;101.90;39.87;;;;;;;-0.62;100.00;103606.44;5035004;28;20098;-91
2023/01/25 01:58:23;;;;;;;93.13;38.73;;;;;;;-0.71;100.00;103590.50;5054318;28;20267;-90
2023/01/25 02:00:49;;;;;;;100.47;40.00;;;;;;;-0.64;100.00;103605.72;5073639;28;20028;-89
2023/01/25 02:03:15;;;;;;;98.37;41.03;;;;;;;-0.64;100.00;103605.72;5075183;28;20037;-90
2023/01/25 02:06:00;;;;;;;100.00;40.65;;;;;;;-0.68;100.00;103595.53;5056324;28;20022;-90
2023/01/25 02:08:26;;;;;;;103.60;41.58;;;;;;;-0.67;100.00;103602.50;5053667;28;20553;-90
2023/01/25 02:10:52;;;;;;;102.63;38.73;;;;;;;-0.70;100.00;103598.31;5033102;28;20033;-90
2023/01/25 02:13:18;;;;;;;101.03;40.08;;;;;;;-0.71;100.00;103603.66;5053109;28;20029;-90
2023/01/25 02:15:48;;;;;;;103.03;40.03;;;;;;;-0.81;100.00;103579.81;5048037;28;20387;-90
2023/01/25 02:18:15;;;;;;;90.60;34.50;;;;;;;-0.69;100.00;103599.13;5062734;28;20399;-90
2023/01/25 02:20:43;;;;;;;102.37;39.63;;;;;;;-0.70;100.00;103595.66;5052726;28;20312;-90
2023/01/25 02:23:24;;;;;;;104.43;38.13;;;;;;;-0.79;100.00;103585.81;5050183;28;20491;-90
2023/01/25 02:25:50;;;;;;;98.35;38.55;;;;;;;-0.77;100.00;103584.75;5033791;28;20147;-90
2023/01/25 02:28:33;;;;;;;97.18;38.83;;;;;;;-0.74;100.00;103590.75;5061849;28;20046;-90
2023/01/25 02:30:59;;;;;;;98.78;39.30;;;;;;;-0.77;100.00;103587.38;5071099;28;20475;-89
2023/01/25 02:33:26;;;;;;;101.33;41.50;;;;;;;-0.78;100.00;103583.06;5045605;28;20033;-90
2023/01/25 02:36:06;;;;;;;99.18;40.17;;;;;;;-0.74;100.00;103583.66;5065610;28;20578;-90
2023/01/25 02:38:38;;;;;;;94.00;37.43;;;;;;;-0.81;100.00;103564.88;5057486;28;20028;-90
2023/01/25 02:41:14;;;;;;;99.13;38.80;;;;;;;-0.81;100.00;103562.22;5046865;28;20109;-90
2023/01/25 02:43:39;;;;;;;102.90;40.03;;;;;;;-0.85;100.00;103547.59;5043617;28;20048;-90
2023/01/25 02:46:26;;;;;;;103.60;40.33;;;;;;;-0.71;100.00;103565.00;5032851;28;20025;-90
2023/01/25 02:48:55;;;;;;;105.00;40.03;;;;;;;-0.72;100.00;103565.97;5055356;28;20296;-90
2023/01/25 02:51:25;;;;;;;106.10;41.63;;;;;;;-0.71;100.00;103564.16;5049587;28;20044;-90
2023/01/25 02:53:52;;;;;;;93.93;35.58;;;;;;;-0.80;100.00;103553.38;5049187;28;20040;-90
2023/01/25 02:56:18;;;;;;;103.15;41.72;;;;;;;-0.72;100.00;103568.59;5051099;28;20033;-90
2023/01/25 02:58:45;;;;;;;104.07;40.58;;;;;;;-0.78;100.00;103555.88;5063278;28;20107;-89
2023/01/25 03:01:12;;;;;;;111.00;41.77;;;;;;;-0.73;100.00;103568.72;5057635;28;20043;-90
2023/01/25 03:03:38;;;;;;;114.83;44.63;;;;;;;-0.86;100.00;103559.09;5049729;28;20309;-90
2023/01/25 03:06:06;;;;;;;113.43;42.90;;;;;;;-0.95;100.00;103551.88;5050986;28;20041;-90
2023/01/25 03:08:31;;;;;;;107.57;41.65;;;;;;;-0.88;100.00;103565.44;5067152;28;20031;-90
2023/01/25 03:10:58;;;;;;;103.18;40.13;;;;;;;-0.94;100.00;103548.31;5072979;28;20025;-90
2023/01/25 03:13:24;;;;;;;105.97;41.10;;;;;;;-0.81;100.00;103561.38;5052261;28;20099;-90
2023/01/25 03:15:50;;;;;;;108.82;40.95;;;;;;;-0.79;100.00;103557.69;5057260;28;20024;-90
2023/01/25 03:18:16;;;;;;;111.75;43.50;;;;;;;-0.98;100.00;103510.00;5068923;28;20315;-90
2023/01/25 03:20:41;;;;;;;109.70;43.00;;;;;;;-0.74;100.00;103545.97;5040265;28;20025;-90
2023/01/25 03:23:06;;;;;;;114.17;43.27;;;;;;;-0.79;100.00;103543.66;5052747;28;20057;-89
2023/01/25 03:25:32;;;;;;;109.93;41.03;;;;;;;-0.81;100.00;103538.53;5030687;28;20029;-89
2023/01/25 03:27:57;;;;;;;114.73;42.13;;;;;;;-0.95;100.00;103509.78;5048502;28;20352;-89
2023/01/25 03:30:25;;;;;;;113.10;42.00;;;;;;;-0.79;100.00;103541.03;5066314;28;20543;-91
2023/01/25 03:32:51;;;;;;;118.03;44.72;;;;;;;-0.88;100.00;103537.31;5047951;28;20115;-89
2023/01/25 03:35:17;;;;;;;112.50;43.03;;;;;;;-0.89;100.00;103521.63;5052885;28;20036;-89
2023/01/25 03:37:42;;;;;;;109.63;42.70;;;;;;;-0.97;100.00;103519.56;5049768;28;20032;-91
2023/01/25 03:40:08;;;;;;;114.10;43.07;;;;;;;-0.94;100.00;103514.91;5038065;28;20025;-92
2023/01/25 03:42:34;;;;;;;114.72;43.40;;;;;;;-0.91;100.00;103516.47;5039699;28;20033;-89
2023/01/25 03:44:59;;;;;;;113.97;41.20;;;;;;;-1.05;100.00;103498.22;5028283;28;20061;-90
2023/01/25 03:47:24;;;;;;;108.27;41.03;;;;;;;-0.90;100.00;103522.59;5031673;28;20035;-89
2023/01/25 03:49:50;;;;;;;113.38;42.92;;;;;;;-0.88;100.00;103516.22;5062164;28;20071;-89
2023/01/25 03:52:15;;;;;;;111.97;42.07;;;;;;;-0.82;100.00;103528.94;5032218;28;20850;-89
2023/01/25 03:54:41;;;;;;;114.17;44.70;;;;;;;-0.81;100.00;103519.25;5049598;28;20416;-90
2023/01/25 03:57:06;;;;;;;123.60;47.50;;;;;;;-0.81;100.00;103521.88;5056931;28;20036;-90
2023/01/25 03:59:32;;;;;;;118.47;42.55;;;;;;;-0.81;100.00;103535.91;5064247;28;20029;-89
2023/01/25 04:01:57;;;;;;;114.27;43.63;;;;;;;-0.97;100.00;103501.97;5065285;28;20032;-90
2023/01/25 04:04:28;;;;;;;112.27;42.57;;;;;;;-0.82;100.00;103528.94;5068933;28;20028;-89
2023/01/25 04:06:54;;;;;;;121.18;46.45;;;;;;;-0.84;100.00;103527.41;5055613;28;20090;-89
2023/01/25 04:09:20;;;;;;;112.40;42.97;;;;;;;-0.88;100.00;103521.50;5063190;28;20064;-89
2023/01/25 04:11:49;;;;;;;121.17;44.77;;;;;;;-0.85;100.00;103525.72;5049731;28;20052;-89
2023/01/25 04:14:14;;;;;;;114.07;41.13;;;;;;;-0.94;100.00;103508.81;5036491;28;20392;-90
2023/01/25 04:16:40;;;;;;;110.20;42.73;;;;;;;-0.90;100.00;103512.88;5045667;28;20025;-89
2023/01/25 04:19:08;;;;;;;114.23;42.90;;;;;;;-0.89;100.00;103509.28;5057839;28;20013;-89
2023/01/25 04:21:34;;;;;;;115.88;43.00;;;;;;;-0.85;100.00;103505.47;5049777;28;20021;-89
2023/01/25 04:23:59;;;;;;;116.40;42.93;;;;;;;-0.80;100.00;103510.38;5052135;28;20032;-89
2023/01/25 04:26:25;;;;;;;118.00;44.38;;;;;;;-0.99;100.00;103471.47;5052881;28;20041;-89
2023/01/25 04:28:50;;;;;;;118.50;46.20;;;;;;;-0.88;100.00;103494.34;5055666;28;20029;-89
2023/01/25 04:31:15;;;;;;;119.83;44.43;;;;;;;-1.00;100.00;103486.41;5057229;28;20029;-89
2023/01/25 04:33:41;;;;;;;112.57;41.57;;;;;;;-0.89;100.00;103511.09;5074679;28;20441;-89
2023/01/25 04:36:13;;;;;;;113.17;42.70;;;;;;;-0.95;100.00;103496.59;5066803;28;20028;-90
2023/01/25 04:38:38;;;;;;;107.57;40.85;;;;;;;-0.90;100.00;103502.34;5070766;28;21038;-89
2023/01/25 04:41:04;;;;;;;112.27;42.47;;;;;;;-0.89;100.00;103505.84;5076885;28;20029;-88
2023/01/25 04:43:29;;;;;;;122.23;46.93;;;;;;;-1.12;100.00;103477.66;5078449;28;20027;-87
2023/01/25 04:46:01;;;;;;;120.15;43.63;;;;;;;-0.96;100.00;103506.28;5057218;28;20009;-90
2023/01/25 04:48:26;;;;;;;111.37;40.87;;;;;;;-1.10;100.00;103481.00;5077533;28;20049;-90
2023/01/25 04:50:52;;;;;;;110.27;42.33;;;;;;;-1.13;100.00;103475.13;5062472;28;20301;-89
2023/01/25 04:53:17;;;;;;;114.30;42.13;;;;;;;-1.04;100.00;103490.25;5036030;28;20115;-91
2023/01/25 04:55:46;;;;;;;109.37;40.13;;;;;;;-1.03;100.00;103491.06;5041240;28;20146;-89
2023/01/25 04:58:12;;;;;;;112.22;42.20;;;;;;;-1.09;100.00;103481.84;5033090;28;20448;-90
2023/01/25 05:00:37;;;;;;;116.40;41.67;;;;;;;-1.05;100.00;103490.34;5034117;28;20022;-89
2023/01/25 05:03:03;;;;;;;112.40;41.90;;;;;;;-1.13;100.00;103468.06;5128762;22;20044;-90
2023/01/25 05:05:30;;;;;;;111.93;42.27;;;;;;;-1.10;100.00;103477.53;5040036;28;20029;-90
2023/01/25 05:11:36;;;;;;;106.45;38.08;;;;;;;-1.15;100.00;103467.34;5049038;28;20051;-89
2023/01/25 05:14:02;;;;;;;102.80;37.42;;;;;;;-1.04;100.00;103476.22;5058190;28;20040;-90
2023/01/25 05:16:28;;;;;;;100.90;38.67;;;;;;;-1.07;100.00;103474.66;5052127;28;20028;-91
2023/01/25 05:18:54;;;;;;;110.23;40.50;;;;;;;-1.14;100.00;103471.66;5052204;28;20643;-94
2023/01/25 05:24:04;;;;;;;105.65;40.58;;;;;;;-1.15;100.00;103483.13;5051880;28;20040;-91
2023/01/25 05:29:14;;;;;;;104.20;38.90;;;;;;;-1.30;100.00;103469.31;5046525;28;20068;-93
2023/01/25 05:31:39;;;;;;;98.88;35.63;;;;;;;-1.17;100.00;103468.41;5036958;28;20076;-93
2023/01/25 05:34:08;;;;;;;95.37;35.90;;;;;;;-1.29;100.00;103449.13;5040783;28;20036;-94
2023/01/25 05:36:33;;;;;;;92.38;34.75;;;;;;;-1.19;100.00;103470.34;5046187;28;20094;-92
2023/01/25 05:38:59;;;;;;;94.47;35.93;;;;;;;-1.20;100.00;103469.47;5037218;28;20025;-93
2023/01/25 05:41:24;;;;;;;101.27;37.83;;;;;;;-1.27;100.00;103461.22;5003170;28;20025;-92
2023/01/25 05:43:49;;;;;;;90.70;35.22;;;;;;;-1.16;100.00;103480.59;5038480;28;20021;-93
2023/01/25 05:46:15;;;;;;;97.90;37.50;;;;;;;-1.22;100.00;103460.84;5051983;28;20028;-91
2023/01/25 05:48:40;;;;;;;92.93;35.30;;;;;;;-1.18;100.00;103472.84;5045977;28;20397;-93
2023/01/25 05:51:05;;;;;;;95.37;36.40;;;;;;;-1.33;100.00;103452.94;5032070;28;20025;-92
2023/01/25 05:53:31;;;;;;;96.40;36.27;;;;;;;-1.34;100.00;103467.03;5049033;28;20029;-93
2023/01/25 05:56:03;;;;;;;99.60;36.10;;;;;;;-1.38;100.00;103461.16;5031687;28;20029;-93
2023/01/25 05:58:29;;;;;;;88.13;35.37;;;;;;;-1.25;100.00;103466.34;5044660;28;20052;-93
2023/01/25 06:01:00;;;;;;;106.05;38.08;;;;;;;-1.23;100.00;103465.28;5015300;28;20114;-92
2023/01/25 06:03:26;;;;;;;97.60;37.13;;;;;;;-1.22;100.00;103460.84;5047411;28;20039;-94
2023/01/25 06:05:55;;;;;;;91.45;35.92;;;;;;;-1.20;100.00;103463.38;5037358;28;20029;-93
2023/01/25 06:08:23;;;;;;;97.50;37.00;;;;;;;-1.22;100.00;103459.09;5038651;28;20029;-93
2023/01/25 06:10:48;;;;;;;96.68;36.05;;;;;;;-1.16;100.00;103473.56;5051888;28;20114;-94
2023/01/25 06:13:13;;;;;;;102.97;37.13;;;;;;;-1.19;100.00;103465.06;5063477;28;20013;-95
2023/01/25 06:15:42;;;;;;;98.05;38.85;;;;;;;-1.30;100.00;103457.97;5074140;28;20029;-96
2023/01/25 06:18:07;;;;;;;91.40;35.83;;;;;;;-1.34;100.00;103459.16;5056191;28;20060;-96
2023/01/25 06:20:33;;;;;;;99.10;39.50;;;;;;;-1.37;100.00;103457.59;5071210;28;20302;-92
2023/01/25 06:22:58;;;;;;;145.00;41.07;;;;;;;-1.32;100.00;103473.84;5070512;28;20021;-93
2023/01/25 06:25:23;;;;;;;120.40;41.43;;;;;;;-1.45;100.00;103458.13;5064322;28;20112;-96
2023/01/25 06:27:49;;;;;;;93.93;37.67;;;;;;;-1.40;100.00;103463.06;5065649;28;20039;-95
2023/01/25 06:30:15;;;;;;;92.90;34.50;;;;;;;-1.39;100.00;103462.13;5058356;28;20530;-96
2023/01/25 06:32:40;;;;;;;87.47;34.65;;;;;;;-1.42;100.00;103455.28;5065190;28;20702;-96
2023/01/25 06:35:08;;;;;;;87.43;32.97;;;;;;;-1.37;100.00;103458.41;5070040;28;20028;-94
2023/01/25 06:37:34;;;;;;;88.65;34.42;;;;;;;-1.33;100.00;103463.47;5064552;28;20025;-96
2023/01/25 06:40:06;;;;;;;86.88;34.03;;;;;;;-1.35;100.00;103449.56;5061267;28;20025;-96
2023/01/25 06:42:31;;;;;;;89.75;35.20;;;;;;;-1.35;100.00;103449.56;5036361;28;20028;-96
2023/01/25 06:44:56;;;;;;;89.83;34.30;;;;;;;-1.29;100.00;103464.91;5053848;28;20025;-96
2023/01/25 06:47:23;;;;;;;84.40;33.07;;;;;;;-1.32;100.00;103451.97;5052028;28;20167;-96
2023/01/25 06:49:48;;;;;;;88.93;34.15;;;;;;;-1.29;100.00;103467.53;5043534;28;20025;-95
2023/01/25 06:52:20;;;;;;;88.17;33.50;;;;;;;-1.59;100.00;103418.84;5116625;22;20056;-96
2023/01/25 06:54:45;;;;;;;92.18;35.47;;;;;;;-1.58;100.00;103418.75;5015509;28;20121;-95
2023/01/25 06:57:10;;;;;;;93.27;33.97;;;;;;;-1.37;100.00;103447.06;5013969;28;20045;-94
2023/01/25 06:59:36;;;;;;;95.13;37.10;;;;;;;-1.35;100.00;103446.94;5027250;28;20033;-95
2023/01/25 07:02:01;;;;;;;97.70;36.53;;;;;;;-1.49;100.00;103440.06;5012629;28;20029;-96
2023/01/25 07:04:29;;;;;;;91.20;35.15;;;;;;;-1.49;100.00;103442.69;5017768;28;20034;-95
2023/01/25 07:06:55;;;;;;;94.53;35.63;;;;;;;-1.46;100.00;103455.63;4983783;28;20425;-95
2023/01/25 07:09:23;;;;;;;93.95;36.33;;;;;;;-1.49;100.00;103448.81;5012573;28;20031;-95
2023/01/25 07:11:49;;;;;;;92.13;35.70;;;;;;;-1.44;100.00;103448.47;5006160;28;20073;-96
2023/01/25 07:14:14;;;;;;;93.88;35.53;;;;;;;-1.42;100.00;103449.19;5037168;28;20018;-94
2023/01/25 07:16:40;;;;;;;92.77;33.97;;;;;;;-1.46;100.00;103445.94;5036476;28;20052;-95
2023/01/25 07:19:06;;;;;;;91.67;35.60;;;;;;;-1.46;100.00;103448.56;5034106;28;20049;-94
2023/01/25 07:21:32;;;;;;;91.28;33.53;;;;;;;-1.43;100.00;103458.84;5032311;28;20022;-96
2023/01/25 07:24:03;;;;;;;92.95;33.63;;;;;;;-1.50;100.00;103448.91;5051191;28;20025;-96
2023/01/25 07:26:29;;;;;;;87.35;33.60;;;;;;;-1.52;100.00;103447.22;5024912;28;20088;-95
2023/01/25 07:28:57;;;;;;;94.17;35.07;;;;;;;-1.42;100.00;103450.00;4993598;28;20034;-94
2023/01/25 07:31:24;;;;;;;91.97;34.40;;;;;;;-1.40;100.00;103447.28;5013524;28;20292;-96
2023/01/25 07:33:50;;;;;;;90.05;34.25;;;;;;;-1.33;100.00;103447.66;5009024;28;20130;-96
2023/01/25 07:36:16;;;;;;;91.00;34.30;;;;;;;-1.42;100.00;103433.41;5001632;28;20034;-94
2023/01/25 07:38:57;;;;;;;95.80;35.78;;;;;;;-1.28;100.00;103446.38;5225072;22;20254;-94
2023/01/25 07:41:23;;;;;;;94.18;35.72;;;;;;;-1.53;100.00;103403.47;4997875;28;20034;-90
2023/01/25 07:43:49;;;;;;;94.80;35.23;;;;;;;-1.29;100.00;103441.22;5005964;28;20108;-89
2023/01/25 07:46:24;;;;;;;88.53;34.50;;;;;;;-1.62;100.00;103391.00;5000242;28;20324;-88
2023/01/25 07:48:51;;;;;;;91.60;34.95;;;;;;;-1.57;100.00;103393.28;5308115;22;20037;-89
2023/01/25 07:51:31;;;;;;;97.85;36.55;;;;;;;-1.53;100.00;103397.38;5034942;28;20044;-89
2023/01/25 07:54:04;;;;;;;93.35;36.13;;;;;;;-1.41;100.00;103409.59;5020556;28;20374;-88
2023/01/25 07:56:39;;;;;;;93.13;35.00;;;;;;;-1.40;100.00;103407.81;5030049;28;20059;-88
2023/01/25 07:59:07;;;;;;;96.07;35.30;;;;;;;-1.56;100.00;103377.41;5015813;28;20037;-88
2023/01/25 08:01:35;;;;;;;104.07;37.13;;;;;;;-1.18;100.00;103445.66;5033769;28;21082;-88
2023/01/25 08:04:05;;;;;;;97.03;35.95;;;;;;;-1.30;100.00;103421.13;5010730;28;20018;-89
2023/01/25 08:06:37;;;;;;;99.50;36.65;;;;;;;-1.29;100.00;103422.81;5029239;28;20021;-87
2023/01/25 08:09:07;;;;;;;93.53;35.75;;;;;;;-1.12;100.00;103434.69;5025662;28;20022;-88
2023/01/25 08:11:32;;;;;;;94.18;35.03;;;;;;;-1.17;100.00;103427.16;5032324;28;20025;-88
2023/01/25 08:14:00;;;;;;;93.67;35.27;;;;;;;-1.15;100.00;103419.97;5030613;28;20140;-88
2023/01/25 08:16:26;;;;;;;92.28;33.97;;;;;;;-1.10;100.00;103433.66;5033365;28;20416;-88
2023/01/25 08:18:54;;;;;;;101.32;38.83;;;;;;;-1.10;100.00;103427.53;5032963;28;20033;-88
2023/01/25 08:21:23;;;;;;;100.05;36.15;;;;;;;-1.01;100.00;103426.84;5015462;28;20117;-88
2023/01/25 08:23:48;;;;;;;97.13;35.10;;;;;;;-0.99;100.00;103434.59;5032178;28;20104;-88
2023/01/25 08:26:15;;;;;;;102.13;36.80;;;;;;;-0.98;100.00;103431.03;5013903;28;20104;-89
2023/01/25 08:28:41;;;;;;;99.13;36.42;;;;;;;-0.98;100.00;103425.75;5909201;22;20012;-88
2023/01/25 08:31:13;;;;;;;101.50;35.97;;;;;;;-0.99;100.00;103424.91;5046745;28;20369;-90
2023/01/25 08:33:39;;;;;;;99.22;37.45;;;;;;;-1.01;100.00;103412.81;5023442;28;20060;-92
2023/01/25 08:36:07;;;;;;;103.33;36.57;;;;;;;-1.26;100.00;103386.56;5027517;28;20033;-91
2023/01/25 08:38:33;;;;;;;92.72;35.67;;;;;;;-1.20;100.00;103402.88;5023492;28;20184;-90
2023/01/25 08:41:06;;;;;;;94.28;35.33;;;;;;;-1.21;100.00;103404.66;5050306;28;20071;-89
2023/01/25 08:43:32;;;;;;;99.22;35.65;;;;;;;-1.11;100.00;103410.91;5049844;28;20392;-89
2023/01/25 08:45:58;;;;;;;103.45;35.67;;;;;;;-1.11;100.00;103405.66;5045397;28;20409;-89
2023/01/25 08:48:23;;;;;;;101.10;37.13;;;;;;;-1.19;100.00;103391.38;5040915;28;20064;-89
2023/01/25 08:50:49;;;;;;;94.37;34.83;;;;;;;-1.10;100.00;103404.69;5051279;28;20032;-90
2023/01/25 08:53:14;;;;;;;103.30;36.00;;;;;;;-0.98;100.00;103418.69;5048029;28;20106;-89
2023/01/25 08:55:41;;;;;;;100.20;36.03;;;;;;;-1.00;100.00;103419.78;5051469;28;20120;-89
2023/01/25 08:58:09;;;;;;;92.35;34.83;;;;;;;-1.02;100.00;103404.09;5047890;28;20506;-89
2023/01/25 09:00:39;;;;;;;99.87;37.27;;;;;;;-0.94;100.00;103406.16;5030755;28;20022;-90
2023/01/25 09:03:06;;;;;;;94.60;35.23;;;;;;;-0.88;100.00;103407.47;5042286;28;20288;-89
2023/01/25 09:05:38;;;;;;;99.35;35.58;;;;;;;-0.87;100.00;103404.69;5039305;28;20376;-89
2023/01/25 09:08:06;;;;;;;97.65;35.75;;;;;;;-0.87;100.00;103409.97;5048001;28;21806;-90
2023/01/25 09:10:33;;;;;;;99.63;36.90;;;;;;;-0.92;100.00;103388.44;5049978;28;20025;-90
2023/01/25 09:12:59;;;;;;;108.75;37.75;;;;;;;-0.88;100.00;103389.03;5050029;28;20492;-89
2023/01/25 09:15:25;;;;;;;100.73;36.50;;;;;;;-0.78;100.00;103404.00;5071998;28;20024;-89
2023/01/25 09:17:55;;;;;;;101.10;36.33;;;;;;;-0.78;100.00;103403.16;5044840;28;20027;-90
2023/01/25 09:20:21;;;;;;;104.68;36.63;;;;;;;-0.80;100.00;103395.38;5051949;28;20033;-90
2023/01/25 09:22:48;;;;;;;98.43;35.05;;;;;;;-0.80;100.00;103379.59;5072383;28;20021;-90
2023/01/25 09:25:14;;;;;;;93.60;35.97;;;;;;;-0.75;100.00;103388.94;5060155;28;20039;-90
2023/01/25 09:27:40;;;;;;;99.93;36.50;;;;;;;-0.68;100.00;103392.75;5053666;28;20032;-90
2023/01/25 09:30:09;;;;;;;95.65;35.22;;;;;;;-0.71;100.00;103393.84;5029638;28;20124;-90
2023/01/25 09:32:37;;;;;;;96.70;35.45;;;;;;;-0.68;100.00;103395.38;5052327;28;20025;-90
2023/01/25 09:35:04;;;;;;;90.38;35.45;;;;;;;-0.69;100.00;103396.34;5017275;28;20040;-90
2023/01/25 09:37:30;;;;;;;101.15;36.63;;;;;;;-0.77;100.00;103386.41;5049940;28;20075;-90
2023/01/25 09:39:55;;;;;;;98.63;36.13;;;;;;;-0.80;100.00;103381.38;5051862;28;20025;-90
2023/01/25 09:42:57;;;;;;;105.47;35.83;;;;;;;-0.71;100.00;103393.84;5052400;28;20100;-90
2023/01/25 09:45:35;;;;;;;99.60;37.60;;;;;;;-0.86;100.00;103382.69;5042022;28;20063;-90
2023/01/25 09:48:09;;;;;;;105.22;35.58;;;;;;;-0.83;100.00;103398.25;5033324;28;20123;-90
2023/01/25 09:50:40;;;;;;;100.70;36.07;;;;;;;-0.84;100.00;103383.41;5069043;28;20021;-90
2023/01/25 09:53:33;;;;;;;105.03;37.00;;;;;;;-0.78;100.00;103390.84;5072940;28;20302;-91
2023/01/25 09:56:08;;;;;;;103.07;36.42;;;;;;;-0.76;100.00;103388.06;5060772;28;20024;-89
2023/01/25 09:58:41;;;;;;;99.55;35.42;;;;;;;-0.75;100.00;103388.94;5047461;28;20128;-89
2023/01/25 10:01:17;;;;;;;95.55;34.22;;;;;;;-0.77;100.00;103384.63;5051936;28;20090;-90
2023/01/25 10:04:03;;;;;;;99.07;35.65;;;;;;;-0.75;100.00;103387.13;5052430;28;20501;-90
2023/01/25 10:06:36;;;;;;;96.93;34.65;;;;;;;-0.76;100.00;103388.06;5049344;28;20033;-91
2023/01/25 10:09:20;;;;;;;99.70;36.97;;;;;;;-0.73;100.00;103394.94;5044451;28;20338;-91
2023/01/25 10:11:46;;;;;;;92.43;32.55;;;;;;;-0.82;100.00;103396.47;5050357;28;20025;-90
2023/01/25 10:14:15;;;;;;;91.28;35.15;;;;;;;-0.93;100.00;103371.78;5050557;28;20056;-91
2023/01/25 10:16:57;;;;;;;88.93;33.00;;;;;;;-0.78;100.00;103372.41;5050446;28;20078;-91
2023/01/25 10:19:42;;;;;;;92.35;32.78;;;;;;;-0.63;100.00;103374.81;5049533;28;20120;-89
2023/01/25 10:22:16;;;;;;;91.63;33.77;;;;;;;-0.61;100.00;103370.25;5045646;28;20029;-89
2023/01/25 10:25:12;;;;;;;92.20;34.70;;;;;;;-0.57;100.00;103361.16;5031906;28;20360;-90
2023/01/25 10:27:57;;;;;;;94.55;33.35;;;;;;;-0.44;100.00;103371.53;5049242;28;20483;-90
2023/01/25 10:30:29;;;;;;;95.20;35.50;;;;;;;-0.42;100.00;103368.81;5051311;28;20032;-91
2023/01/25 10:33:01;;;;;;;94.85;33.92;;;;;;;-0.41;100.00;103360.75;5051740;28;20021;-90
2023/01/25 10:35:35;;;;;;;96.30;34.30;;;;;;;-0.52;100.00;103358.97;5051882;28;20029;-91
2023/01/25 10:38:05;;;;;;;93.38;36.47;;;;;;;-0.57;100.00;103355.88;5050348;28;20029;-91
2023/01/25 10:40:44;;;;;;;96.43;34.60;;;;;;;-0.59;100.00;103362.22;5042255;28;20038;-92
2023/01/25 10:43:19;;;;;;;93.57;33.13;;;;;;;-0.59;100.00;103356.94;5046966;28;20021;-91
2023/01/25 10:45:46;;;;;;;96.03;35.20;;;;;;;-0.56;100.00;103346.19;5041815;28;20033;-90
2023/01/25 10:48:21;;;;;;;94.00;34.35;;;;;;;-0.57;100.00;103332.19;5048752;28;20030;-92
2023/01/25 10:50:49;;;;;;;94.18;34.30;;;;;;;-0.57;100.00;103320.78;5054077;28;20153;-92
2023/01/25 10:53:38;;;;;;;92.80;31.93;;;;;;;-0.47;100.00;103319.94;5058601;28;20012;-91
2023/01/25 10:56:09;;;;;;;93.30;35.13;;;;;;;-0.41;100.00;103318.59;5072768;28;20300;-91
2023/01/25 10:58:41;;;;;;;97.78;35.55;;;;;;;-0.42;100.00;103316.09;5048993;28;20024;-92
2023/01/25 11:01:11;;;;;;;110.40;41.35;;;;;;;-0.53;100.00;103299.34;5064496;28;20024;-92
2023/01/25 11:03:39;;;;;;;95.05;36.10;;;;;;;-0.52;100.00;103301.03;5060303;28;20047;-90
2023/01/25 11:06:07;;;;;;;90.60;34.03;;;;;;;-0.51;100.00;103292.16;5050856;28;20024;-90
2023/01/25 11:08:35;;;;;;;95.93;35.67;;;;;;;-0.38;100.00;103285.94;5044140;28;20063;-91
2023/01/25 11:11:24;;;;;;;92.83;33.23;;;;;;;-0.32;100.00;103277.50;5047839;28;20025;-91
2023/01/25 11:13:51;;;;;;;93.63;34.05;;;;;;;-0.21;100.00;103269.59;5031499;28;20049;-90
2023/01/25 11:16:22;;;;;;;97.20;36.45;;;;;;;-0.18;100.00;103279.84;5048094;28;20504;-90